Time,TemperatureF,DewpointF,PressureIn,WindDirection,WindDirectionDegrees,WindSpeedMPH,WindSpeedGustMPH,Humidity,HourlyPrecipIn,Conditions,Clouds,dailyrainin,SoftwareType,DateUTC
2013-06-25 00:03:00,71.4,69.3,29.98,SE,135,1.7,-999.0,93,-99.99,,,0.00,Acu-Link.com,2013-06-25 04:03:00,
2013-06-25 00:18:00,71.2,69.1,29.97,ESE,112,2.7,-999.0,93,-99.99,,,0.00,Acu-Link.com,2013-06-25 04:18:00,
2013-06-25 00:33:00,71.2,69.1,29.96,SE,135,1.7,-999.0,93,-99.99,,,0.00,Acu-Link.com,2013-06-25 04:33:00,
2013-06-25 00:48:00,71.1,69.0,29.97,South,180,1.1,-999.0,93,-99.99,,,0.00,Acu-Link.com,2013-06-25 04:48:00,
2013-06-25 01:04:00,70.7,68.6,29.97,SSE,157,0.0,-999.0,93,-99.99,,,0.00,Acu-Link.com,2013-06-25 05:04:00,
2013-06-25 01:19:00,70.3,68.5,29.96,SSE,157,0.0,-999.0,94,-99.99,,,0.00,Acu-Link.com,2013-06-25 05:19:00,
2013-06-25 01:34:00,70.3,68.8,29.94,SE,135,1.7,-999.0,95,-99.99,,,0.00,Acu-Link.com,2013-06-25 05:34:00,
2013-06-25 01:49:00,70.3,68.8,29.93,SSE,157,1.7,-999.0,95,-99.99,,,0.00,Acu-Link.com,2013-06-25 05:49:00,
2013-06-25 02:04:00,70.0,68.5,29.94,West,270,0.0,-999.0,95,-99.99,,,0.00,Acu-Link.com,2013-06-25 06:04:00,
2013-06-25 02:20:00,69.4,67.9,29.95,NW,315,0.0,-999.0,95,-99.99,,,0.00,Acu-Link.com,2013-06-25 06:20:00,
2013-06-25 02:35:00,68.9,67.7,29.95,NNW,337,0.0,-999.0,96,-99.99,,,0.00,Acu-Link.com,2013-06-25 06:35:00,
2013-06-25 02:50:00,68.7,67.8,29.95,NNE,22,0.0,-999.0,97,-99.99,,,0.00,Acu-Link.com,2013-06-25 06:50:00,
2013-06-25 03:05:00,68.5,67.6,29.93,SE,135,0.0,-999.0,97,-99.99,,,0.00,Acu-Link.com,2013-06-25 07:05:00,
2013-06-25 03:20:00,68.0,67.1,29.94,NW,315,0.0,-999.0,97,-99.99,,,0.00,Acu-Link.com,2013-06-25 07:20:00,
2013-06-25 03:36:00,67.6,67.0,29.94,South,180,0.0,-999.0,98,-99.99,,,0.00,Acu-Link.com,2013-06-25 07:36:00,
2013-06-25 03:51:00,67.6,67.0,29.93,SSW,202,0.0,-999.0,98,-99.99,,,0.00,Acu-Link.com,2013-06-25 07:51:00,
2013-06-25 04:07:00,67.8,67.5,29.93,ESE,112,0.0,-999.0,99,-99.99,,,0.00,Acu-Link.com,2013-06-25 08:07:00,
2013-06-25 04:22:00,67.8,67.5,29.93,East,90,0.0,-999.0,99,-99.99,,,0.00,Acu-Link.com,2013-06-25 08:22:00,
2013-06-25 04:37:00,67.1,66.8,29.93,SSW,202,0.0,-999.0,99,-99.99,,,0.00,Acu-Link.com,2013-06-25 08:37:00,
2013-06-25 04:52:00,67.3,67.0,29.93,WNW,292,1.1,-999.0,99,-99.99,,,0.00,Acu-Link.com,2013-06-25 08:52:00,
2013-06-25 05:07:00,67.6,67.3,29.93,SSE,157,1.7,-999.0,99,-99.99,,,0.00,Acu-Link.com,2013-06-25 09:07:00,
2013-06-25 05:22:00,68.0,67.7,29.93,NW,315,1.1,-999.0,99,-99.99,,,0.00,Acu-Link.com,2013-06-25 09:22:00,
2013-06-25 05:38:00,68.0,67.7,29.93,SE,135,1.7,-999.0,99,-99.99,,,0.00,Acu-Link.com,2013-06-25 09:38:00,
2013-06-25 05:53:00,68.0,67.7,29.93,SSW,202,1.7,-999.0,99,-99.99,,,0.00,Acu-Link.com,2013-06-25 09:53:00,
2013-06-25 06:08:00,67.8,67.5,29.94,SE,135,0.0,-999.0,99,-99.99,,,0.00,Acu-Link.com,2013-06-25 10:08:00,
2013-06-25 06:23:00,67.6,67.3,29.95,NW,315,0.0,-999.0,99,-99.99,,,0.00,Acu-Link.com,2013-06-25 10:23:00,
2013-06-25 06:38:00,67.6,67.3,29.95,SSE,157,2.2,-999.0,99,-99.99,,,0.00,Acu-Link.com,2013-06-25 10:38:00,
2013-06-25 06:54:00,68.0,67.4,29.95,SSW,202,1.7,-999.0,98,-99.99,,,0.00,Acu-Link.com,2013-06-25 10:54:00,
2013-06-25 07:09:00,68.5,67.9,29.95,South,180,2.7,-999.0,98,-99.99,,,0.00,Acu-Link.com,2013-06-25 11:09:00,
2013-06-25 07:24:00,69.3,68.1,29.95,SSE,157,0.0,-999.0,96,-99.99,,,0.00,Acu-Link.com,2013-06-25 11:24:00,
2013-06-25 07:39:00,70.3,68.5,29.96,SSW,202,2.7,-999.0,94,-99.99,,,0.00,Acu-Link.com,2013-06-25 11:39:00,
2013-06-25 07:54:00,72.0,68.9,29.96,West,270,3.2,-999.0,90,-99.99,,,0.00,Acu-Link.com,2013-06-25 11:54:00,
2013-06-25 08:10:00,74.7,69.9,29.97,NNE,22,3.2,-999.0,85,-99.99,,,0.00,Acu-Link.com,2013-06-25 12:10:00,
2013-06-25 08:25:00,77.7,71.0,29.97,SW,225,3.2,-999.0,80,-99.99,,,0.00,Acu-Link.com,2013-06-25 12:25:00,
2013-06-25 08:40:00,79.2,71.3,29.97,SSW,202,3.2,-999.0,77,-99.99,,,0.00,Acu-Link.com,2013-06-25 12:40:00,
2013-06-25 08:55:00,79.3,71.8,29.97,SSW,202,1.7,-999.0,78,-99.99,,,0.00,Acu-Link.com,2013-06-25 12:55:00,
2013-06-25 09:10:00,81.9,72.8,29.96,South,180,1.7,-999.0,74,-99.99,,,0.00,Acu-Link.com,2013-06-25 13:10:00,
2013-06-25 09:26:00,82.6,73.0,29.97,SSW,202,4.7,-999.0,73,-99.99,,,0.00,Acu-Link.com,2013-06-25 13:26:00,
2013-06-25 09:41:00,86.0,74.6,29.96,WSW,247,4.7,-999.0,69,-99.99,,,0.00,Acu-Link.com,2013-06-25 13:41:00,
2013-06-25 09:56:00,85.5,75.0,29.96,SW,225,2.7,-999.0,71,-99.99,,,0.00,Acu-Link.com,2013-06-25 13:56:00,
2013-06-25 10:12:00,86.7,74.0,29.96,ESE,112,2.7,-999.0,66,-99.99,,,0.00,Acu-Link.com,2013-06-25 14:12:00,
2013-06-25 10:27:00,87.1,74.3,29.95,East,90,2.7,-999.0,66,-99.99,,,0.00,Acu-Link.com,2013-06-25 14:27:00,
2013-06-25 10:42:00,87.4,74.6,29.95,SSE,157,2.7,-999.0,66,-99.99,,,0.00,Acu-Link.com,2013-06-25 14:42:00,
2013-06-25 10:57:00,90.5,75.7,29.95,SSW,202,2.7,-999.0,62,-99.99,,,0.00,Acu-Link.com,2013-06-25 14:57:00,
2013-06-25 11:12:00,89.4,74.6,29.95,South,180,4.2,-999.0,62,-99.99,,,0.00,Acu-Link.com,2013-06-25 15:12:00,
2013-06-25 11:27:00,85.5,74.6,29.95,SE,135,4.2,-999.0,70,-99.99,,,0.00,Acu-Link.com,2013-06-25 15:27:00,
2013-06-25 11:43:00,89.8,75.0,29.95,North,0,2.7,-999.0,62,-99.99,,,0.00,Acu-Link.com,2013-06-25 15:43:00,
2013-06-25 11:58:00,92.1,75.7,29.95,SW,225,2.7,-999.0,59,-99.99,,,0.00,Acu-Link.com,2013-06-25 15:58:00,
2013-06-25 12:13:00,91.8,76.4,29.94,NE,45,4.2,-999.0,61,-99.99,,,0.00,Acu-Link.com,2013-06-25 16:13:00,
2013-06-25 12:28:00,93.0,76.0,29.94,West,270,2.2,-999.0,58,-99.99,,,0.00,Acu-Link.com,2013-06-25 16:28:00,
2013-06-25 12:43:00,93.0,75.5,29.94,SSE,157,4.7,-999.0,57,-99.99,,,0.00,Acu-Link.com,2013-06-25 16:43:00,
2013-06-25 12:59:00,94.6,77.5,29.94,South,180,2.7,-999.0,58,-99.99,,,0.00,Acu-Link.com,2013-06-25 16:59:00,
2013-06-25 13:14:00,92.8,75.8,29.94,ESE,112,3.7,-999.0,58,-99.99,,,0.00,Acu-Link.com,2013-06-25 17:14:00,
2013-06-25 13:29:00,93.2,75.7,29.93,South,180,2.7,-999.0,57,-99.99,,,0.00,Acu-Link.com,2013-06-25 17:29:00,
2013-06-25 13:44:00,91.4,75.0,29.93,West,270,2.2,-999.0,59,-99.99,,,0.00,Acu-Link.com,2013-06-25 17:44:00,
2013-06-25 13:59:00,91.6,76.7,29.92,NNE,22,1.7,-999.0,62,-99.99,,,0.00,Acu-Link.com,2013-06-25 17:59:00,
2013-06-25 14:15:00,91.9,74.4,29.91,West,270,3.2,-999.0,57,-99.99,,,0.00,Acu-Link.com,2013-06-25 18:15:00,
2013-06-25 14:30:00,90.9,74.6,29.90,NE,45,1.7,-999.0,59,-99.99,,,0.00,Acu-Link.com,2013-06-25 18:30:00,
2013-06-25 14:45:00,94.8,76.1,29.90,NNE,22,3.2,-999.0,55,-99.99,,,0.00,Acu-Link.com,2013-06-25 18:45:00,
2013-06-25 15:00:00,97.2,76.0,29.90,ESE,112,1.7,-999.0,51,-99.99,,,0.00,Acu-Link.com,2013-06-25 19:00:00,
2013-06-25 15:16:00,94.3,75.1,29.90,WNW,292,3.2,-999.0,54,-99.99,,,0.00,Acu-Link.com,2013-06-25 19:16:00,
2013-06-25 15:31:00,93.7,74.5,29.89,ESE,112,1.1,-999.0,54,-99.99,,,0.00,Acu-Link.com,2013-06-25 19:31:00,
2013-06-25 15:46:00,97.2,74.2,29.88,WNW,292,6.3,-999.0,48,-99.99,,,0.00,Acu-Link.com,2013-06-25 19:46:00,
2013-06-25 16:01:00,95.5,75.0,29.88,SW,225,3.2,-999.0,52,-99.99,,,0.00,Acu-Link.com,2013-06-25 20:01:00,
2013-06-25 16:16:00,96.8,75.6,29.87,SSW,202,4.7,-999.0,51,-99.99,,,0.00,Acu-Link.com,2013-06-25 20:16:00,
2013-06-25 16:31:00,94.3,74.5,29.87,WNW,292,4.7,-999.0,53,-99.99,,,0.00,Acu-Link.com,2013-06-25 20:31:00,
2013-06-25 16:46:00,94.5,74.7,29.86,WSW,247,1.7,-999.0,53,-99.99,,,0.00,Acu-Link.com,2013-06-25 20:46:00,
2013-06-25 17:02:00,92.7,73.0,29.86,SW,225,5.3,-999.0,53,-99.99,,,0.00,Acu-Link.com,2013-06-25 21:02:00,
2013-06-25 17:17:00,94.8,72.0,29.85,South,180,2.7,-999.0,48,-99.99,,,0.00,Acu-Link.com,2013-06-25 21:17:00,
2013-06-25 17:32:00,95.9,73.6,29.84,East,90,2.2,-999.0,49,-99.99,,,0.00,Acu-Link.com,2013-06-25 21:32:00,
2013-06-25 17:47:00,93.6,73.3,29.84,ESE,112,5.8,-999.0,52,-99.99,,,0.00,Acu-Link.com,2013-06-25 21:47:00,
2013-06-25 18:03:00,91.4,72.9,29.84,West,270,3.7,-999.0,55,-99.99,,,0.00,Acu-Link.com,2013-06-25 22:03:00,
2013-06-25 18:18:00,92.3,72.7,29.84,SSE,157,5.8,-999.0,53,-99.99,,,0.00,Acu-Link.com,2013-06-25 22:18:00,
2013-06-25 18:33:00,90.9,72.5,29.84,SSE,157,3.2,-999.0,55,-99.99,,,0.00,Acu-Link.com,2013-06-25 22:33:00,
2013-06-25 18:48:00,89.6,72.3,29.83,WNW,292,2.7,-999.0,57,-99.99,,,0.00,Acu-Link.com,2013-06-25 22:48:00,
2013-06-25 19:04:00,89.6,72.3,29.82,West,270,3.7,-999.0,57,-99.99,,,0.00,Acu-Link.com,2013-06-25 23:04:00,
2013-06-25 19:19:00,88.5,71.8,29.82,South,180,3.2,-999.0,58,-99.99,,,0.00,Acu-Link.com,2013-06-25 23:19:00,
2013-06-25 19:34:00,86.7,71.1,29.82,NNW,337,2.7,-999.0,60,-99.99,,,0.00,Acu-Link.com,2013-06-25 23:34:00,
2013-06-25 19:49:00,86.9,72.3,29.82,SSW,202,2.7,-999.0,62,-99.99,,,0.00,Acu-Link.com,2013-06-25 23:49:00,
2013-06-25 20:04:00,85.8,72.2,29.82,SSE,157,2.2,-999.0,64,-99.99,,,0.00,Acu-Link.com,2013-06-26 00:04:00,
2013-06-25 20:19:00,85.3,72.6,29.82,ENE,67,0.0,-999.0,66,-99.99,,,0.00,Acu-Link.com,2013-06-26 00:19:00,
2013-06-25 20:35:00,84.2,72.5,29.82,SSE,157,3.2,-999.0,68,-99.99,,,0.00,Acu-Link.com,2013-06-26 00:35:00,
2013-06-25 20:50:00,83.7,72.4,29.82,WNW,292,0.0,-999.0,69,-99.99,,,0.00,Acu-Link.com,2013-06-26 00:50:00,
2013-06-25 21:05:00,82.9,72.1,29.83,SSE,157,2.7,-999.0,70,-99.99,,,0.00,Acu-Link.com,2013-06-26 01:05:00,
2013-06-25 21:20:00,82.2,71.8,29.83,SE,135,2.7,-999.0,71,-99.99,,,0.00,Acu-Link.com,2013-06-26 01:20:00,
2013-06-25 21:35:00,81.9,72.0,29.83,South,180,3.7,-999.0,72,-99.99,,,0.00,Acu-Link.com,2013-06-26 01:35:00,
2013-06-25 21:51:00,81.1,71.6,29.84,ENE,67,2.2,-999.0,73,-99.99,,,0.00,Acu-Link.com,2013-06-26 01:51:00,
2013-06-25 22:06:00,80.6,71.5,29.83,SE,135,2.2,-999.0,74,-99.99,,,0.00,Acu-Link.com,2013-06-26 02:06:00,
2013-06-25 22:21:00,80.4,71.7,29.84,WSW,247,3.2,-999.0,75,-99.99,,,0.00,Acu-Link.com,2013-06-26 02:21:00,
2013-06-25 22:36:00,79.7,71.4,29.85,SE,135,0.0,-999.0,76,-99.99,,,0.00,Acu-Link.com,2013-06-26 02:36:00,
2013-06-25 22:52:00,79.3,71.4,29.85,SSW,202,2.2,-999.0,77,-99.99,,,0.00,Acu-Link.com,2013-06-26 02:52:00,
2013-06-25 23:07:00,79.2,71.7,29.85,SSE,157,1.7,-999.0,78,-99.99,,,0.00,Acu-Link.com,2013-06-26 03:07:00,
2013-06-25 23:22:00,79.2,72.1,29.84,ESE,112,5.3,-999.0,79,-99.99,,,0.00,Acu-Link.com,2013-06-26 03:22:00,
2013-06-25 23:37:00,78.6,71.5,29.84,NE,45,3.2,-999.0,79,-99.99,,,0.00,Acu-Link.com,2013-06-26 03:37:00,
2013-06-25 23:52:00,78.3,71.6,29.84,West,270,3.2,-999.0,80,-99.99,,,0.00,Acu-Link.com,2013-06-26 03:52:00,